sensor_id;sensor_type;location;lat;lon;timestamp;P1;durP1;ratioP1;P2;durP2;ratioP2
3081;SDS011;1551;51.046;7.010;2023-02-13T00:01:56;12.10;;;7.82;;
3081;SDS011;1551;51.046;7.010;2023-02-13T00:04:45;11.75;;;7.90;;
3081;SDS011;1551;51.046;7.010;2023-02-13T00:07:34;10.68;;;7.60;;
3081;SDS011;1551;51.046;7.010;2023-02-13T00:10:23;12.18;;;8.45;;
3081;SDS011;1551;51.046;7.010;2023-02-13T00:13:12;11.48;;;8.00;;
3081;SDS011;1551;51.046;7.010;2023-02-13T00:16:02;11.73;;;8.20;;
3081;SDS011;1551;51.046;7.010;2023-02-13T00:18:52;11.30;;;8.48;;
3081;SDS011;1551;51.046;7.010;2023-02-13T00:21:41;12.40;;;8.30;;
3081;SDS011;1551;51.046;7.010;2023-02-13T00:24:30;12.23;;;8.63;;
3081;SDS011;1551;51.046;7.010;2023-02-13T00:27:19;12.27;;;8.63;;
3081;SDS011;1551;51.046;7.010;2023-02-13T00:30:08;10.85;;;7.78;;
3081;SDS011;1551;51.046;7.010;2023-02-13T00:32:57;12.40;;;7.80;;
3081;SDS011;1551;51.046;7.010;2023-02-13T00:35:47;12.35;;;8.23;;
3081;SDS011;1551;51.046;7.010;2023-02-13T00:38:36;11.30;;;8.50;;
3081;SDS011;1551;51.046;7.010;2023-02-13T00:41:26;12.68;;;8.40;;
3081;SDS011;1551;51.046;7.010;2023-02-13T00:44:16;12.23;;;8.17;;
3081;SDS011;1551;51.046;7.010;2023-02-13T00:47:05;11.68;;;9.30;;
3081;SDS011;1551;51.046;7.010;2023-02-13T00:49:54;12.75;;;8.63;;
3081;SDS011;1551;51.046;7.010;2023-02-13T00:52:45;10.05;;;7.65;;
3081;SDS011;1551;51.046;7.010;2023-02-13T00:55:35;11.88;;;8.00;;
3081;SDS011;1551;51.046;7.010;2023-02-13T00:58:24;10.40;;;7.65;;
3081;SDS011;1551;51.046;7.010;2023-02-13T01:01:13;11.57;;;8.17;;
3081;SDS011;1551;51.046;7.010;2023-02-13T01:04:02;13.05;;;8.32;;
3081;SDS011;1551;51.046;7.010;2023-02-13T01:06:51;11.48;;;8.32;;
3081;SDS011;1551;51.046;7.010;2023-02-13T01:09:40;12.87;;;8.37;;
3081;SDS011;1551;51.046;7.010;2023-02-13T01:12:29;11.15;;;7.78;;
3081;SDS011;1551;51.046;7.010;2023-02-13T01:15:18;11.50;;;8.57;;
3081;SDS011;1551;51.046;7.010;2023-02-13T01:18:08;11.93;;;8.35;;
3081;SDS011;1551;51.046;7.010;2023-02-13T01:21:00;11.45;;;8.40;;
3081;SDS011;1551;51.046;7.010;2023-02-13T01:23:51;12.95;;;8.43;;
3081;SDS011;1551;51.046;7.010;2023-02-13T01:26:42;12.50;;;7.88;;
3081;SDS011;1551;51.046;7.010;2023-02-13T01:29:31;12.73;;;8.48;;
3081;SDS011;1551;51.046;7.010;2023-02-13T01:32:21;11.57;;;8.00;;
3081;SDS011;1551;51.046;7.010;2023-02-13T01:35:10;10.70;;;8.57;;
3081;SDS011;1551;51.046;7.010;2023-02-13T01:38:01;14.88;;;10.30;;
3081;SDS011;1551;51.046;7.010;2023-02-13T01:40:51;11.32;;;7.70;;
3081;SDS011;1551;51.046;7.010;2023-02-13T01:43:46;11.73;;;7.50;;
3081;SDS011;1551;51.046;7.010;2023-02-13T01:46:45;10.00;;;7.63;;
3081;SDS011;1551;51.046;7.010;2023-02-13T01:49:34;12.18;;;7.70;;
3081;SDS011;1551;51.046;7.010;2023-02-13T01:52:24;11.60;;;7.22;;
3081;SDS011;1551;51.046;7.010;2023-02-13T01:55:13;12.40;;;7.35;;
3081;SDS011;1551;51.046;7.010;2023-02-13T01:58:05;10.73;;;7.88;;
3081;SDS011;1551;51.046;7.010;2023-02-13T02:00:57;11.65;;;7.90;;
3081;SDS011;1551;51.046;7.010;2023-02-13T02:03:59;11.18;;;7.70;;
3081;SDS011;1551;51.046;7.010;2023-02-13T02:06:56;9.85;;;7.10;;
3081;SDS011;1551;51.046;7.010;2023-02-13T02:09:52;9.98;;;7.18;;
3081;SDS011;1551;51.046;7.010;2023-02-13T02:15:41;9.55;;;7.38;;
3081;SDS011;1551;51.046;7.010;2023-02-13T02:18:31;11.00;;;8.32;;
3081;SDS011;1551;51.046;7.010;2023-02-13T02:21:35;11.02;;;6.85;;
3081;SDS011;1551;51.046;7.010;2023-02-13T02:28:13;8.48;;;6.85;;
3081;SDS011;1551;51.046;7.010;2023-02-13T02:47:53;10.33;;;7.40;;
3081;SDS011;1551;51.046;7.010;2023-02-13T02:54:27;10.25;;;7.20;;
3081;SDS011;1551;51.046;7.010;2023-02-13T02:57:41;10.70;;;7.30;;
3081;SDS011;1551;51.046;7.010;2023-02-13T03:00:52;10.77;;;7.47;;
3081;SDS011;1551;51.046;7.010;2023-02-13T03:04:04;8.90;;;6.82;;
3081;SDS011;1551;51.046;7.010;2023-02-13T03:07:14;9.82;;;7.15;;
3081;SDS011;1551;51.046;7.010;2023-02-13T03:10:09;10.77;;;7.40;;
3081;SDS011;1551;51.046;7.010;2023-02-13T03:13:35;9.68;;;7.40;;
3081;SDS011;1551;51.046;7.010;2023-02-13T03:16:31;10.13;;;8.27;;
3081;SDS011;1551;51.046;7.010;2023-02-13T03:23:29;9.82;;;7.32;;
3081;SDS011;1551;51.046;7.010;2023-02-13T03:26:45;10.70;;;7.40;;
3081;SDS011;1551;51.046;7.010;2023-02-13T03:29:42;9.02;;;7.20;;
3081;SDS011;1551;51.046;7.010;2023-02-13T03:32:59;10.55;;;8.60;;
3081;SDS011;1551;51.046;7.010;2023-02-13T03:36:33;11.10;;;7.70;;
3081;SDS011;1551;51.046;7.010;2023-02-13T03:40:04;10.43;;;7.70;;
3081;SDS011;1551;51.046;7.010;2023-02-13T03:45:58;10.80;;;8.17;;
3081;SDS011;1551;51.046;7.010;2023-02-13T03:48:50;12.27;;;8.85;;
3081;SDS011;1551;51.046;7.010;2023-02-13T03:52:00;11.25;;;8.05;;
3081;SDS011;1551;51.046;7.010;2023-02-13T03:58:26;12.43;;;8.50;;
3081;SDS011;1551;51.046;7.010;2023-02-13T04:01:38;9.73;;;7.88;;
3081;SDS011;1551;51.046;7.010;2023-02-13T04:04:31;10.93;;;8.63;;
3081;SDS011;1551;51.046;7.010;2023-02-13T04:07:31;10.45;;;8.20;;
3081;SDS011;1551;51.046;7.010;2023-02-13T04:10:20;11.35;;;8.43;;
3081;SDS011;1551;51.046;7.010;2023-02-13T04:13:17;9.95;;;7.63;;
3081;SDS011;1551;51.046;7.010;2023-02-13T04:16:15;10.68;;;8.00;;
3081;SDS011;1551;51.046;7.010;2023-02-13T04:19:09;12.07;;;8.52;;
3081;SDS011;1551;51.046;7.010;2023-02-13T04:22:00;11.38;;;8.65;;
3081;SDS011;1551;51.046;7.010;2023-02-13T04:24:50;11.50;;;8.50;;
3081;SDS011;1551;51.046;7.010;2023-02-13T04:27:39;12.07;;;8.70;;
3081;SDS011;1551;51.046;7.010;2023-02-13T04:30:28;10.10;;;8.10;;
3081;SDS011;1551;51.046;7.010;2023-02-13T04:33:17;10.40;;;8.40;;
3081;SDS011;1551;51.046;7.010;2023-02-13T04:36:07;10.68;;;8.35;;
3081;SDS011;1551;51.046;7.010;2023-02-13T04:38:55;10.77;;;8.20;;
3081;SDS011;1551;51.046;7.010;2023-02-13T04:41:44;10.55;;;8.18;;
3081;SDS011;1551;51.046;7.010;2023-02-13T04:44:33;10.40;;;8.00;;
3081;SDS011;1551;51.046;7.010;2023-02-13T04:47:23;11.27;;;8.50;;
3081;SDS011;1551;51.046;7.010;2023-02-13T04:50:12;11.60;;;8.50;;
3081;SDS011;1551;51.046;7.010;2023-02-13T04:53:01;11.15;;;8.82;;
3081;SDS011;1551;51.046;7.010;2023-02-13T04:55:50;11.30;;;8.52;;
3081;SDS011;1551;51.046;7.010;2023-02-13T04:58:40;11.30;;;9.40;;
3081;SDS011;1551;51.046;7.010;2023-02-13T05:01:29;11.18;;;8.57;;
3081;SDS011;1551;51.046;7.010;2023-02-13T05:04:18;11.80;;;8.77;;
3081;SDS011;1551;51.046;7.010;2023-02-13T05:07:07;10.93;;;8.70;;
3081;SDS011;1551;51.046;7.010;2023-02-13T05:09:56;11.88;;;8.82;;
3081;SDS011;1551;51.046;7.010;2023-02-13T05:12:46;12.90;;;8.73;;
3081;SDS011;1551;51.046;7.010;2023-02-13T05:15:35;11.18;;;8.60;;
3081;SDS011;1551;51.046;7.010;2023-02-13T05:18:24;11.52;;;9.30;;
3081;SDS011;1551;51.046;7.010;2023-02-13T05:21:13;10.93;;;8.23;;
3081;SDS011;1551;51.046;7.010;2023-02-13T05:24:21;9.95;;;8.02;;
3081;SDS011;1551;51.046;7.010;2023-02-13T05:27:10;11.23;;;8.85;;
3081;SDS011;1551;51.046;7.010;2023-02-13T05:29:59;12.10;;;8.02;;
3081;SDS011;1551;51.046;7.010;2023-02-13T05:32:48;10.77;;;8.63;;
3081;SDS011;1551;51.046;7.010;2023-02-13T05:35:39;11.63;;;8.73;;
3081;SDS011;1551;51.046;7.010;2023-02-13T05:38:28;10.55;;;8.68;;
3081;SDS011;1551;51.046;7.010;2023-02-13T05:41:17;10.77;;;8.50;;
3081;SDS011;1551;51.046;7.010;2023-02-13T05:44:07;10.88;;;8.38;;
3081;SDS011;1551;51.046;7.010;2023-02-13T05:46:56;11.55;;;8.70;;
3081;SDS011;1551;51.046;7.010;2023-02-13T05:49:45;11.40;;;8.40;;
3081;SDS011;1551;51.046;7.010;2023-02-13T05:52:34;11.27;;;8.90;;
3081;SDS011;1551;51.046;7.010;2023-02-13T05:55:23;11.68;;;8.10;;
3081;SDS011;1551;51.046;7.010;2023-02-13T05:58:12;11.00;;;8.75;;
3081;SDS011;1551;51.046;7.010;2023-02-13T06:01:01;11.05;;;9.60;;
3081;SDS011;1551;51.046;7.010;2023-02-13T06:03:51;10.82;;;8.20;;
3081;SDS011;1551;51.046;7.010;2023-02-13T06:06:40;11.48;;;8.68;;
3081;SDS011;1551;51.046;7.010;2023-02-13T06:09:29;12.85;;;9.05;;
3081;SDS011;1551;51.046;7.010;2023-02-13T06:12:18;10.68;;;8.30;;
3081;SDS011;1551;51.046;7.010;2023-02-13T06:15:07;10.45;;;8.35;;
3081;SDS011;1551;51.046;7.010;2023-02-13T06:17:56;12.00;;;8.68;;
3081;SDS011;1551;51.046;7.010;2023-02-13T06:20:45;11.90;;;8.70;;
3081;SDS011;1551;51.046;7.010;2023-02-13T06:23:34;10.55;;;7.80;;
3081;SDS011;1551;51.046;7.010;2023-02-13T06:26:23;11.50;;;8.50;;
3081;SDS011;1551;51.046;7.010;2023-02-13T06:29:12;11.43;;;9.33;;
3081;SDS011;1551;51.046;7.010;2023-02-13T06:32:01;12.00;;;8.20;;
3081;SDS011;1551;51.046;7.010;2023-02-13T06:34:50;9.65;;;7.80;;
3081;SDS011;1551;51.046;7.010;2023-02-13T06:37:40;11.80;;;8.70;;
3081;SDS011;1551;51.046;7.010;2023-02-13T06:40:30;11.68;;;9.65;;
3081;SDS011;1551;51.046;7.010;2023-02-13T06:43:19;13.45;;;9.77;;
3081;SDS011;1551;51.046;7.010;2023-02-13T06:46:08;11.68;;;9.35;;
3081;SDS011;1551;51.046;7.010;2023-02-13T06:48:57;13.00;;;8.73;;
3081;SDS011;1551;51.046;7.010;2023-02-13T06:51:46;11.32;;;9.38;;
3081;SDS011;1551;51.046;7.010;2023-02-13T06:54:35;11.95;;;9.38;;
3081;SDS011;1551;51.046;7.010;2023-02-13T06:57:24;12.25;;;8.60;;
3081;SDS011;1551;51.046;7.010;2023-02-13T07:00:15;10.63;;;8.50;;
3081;SDS011;1551;51.046;7.010;2023-02-13T07:03:06;12.68;;;9.52;;
3081;SDS011;1551;51.046;7.010;2023-02-13T07:05:55;12.77;;;9.57;;
3081;SDS011;1551;51.046;7.010;2023-02-13T07:08:44;12.52;;;9.40;;
3081;SDS011;1551;51.046;7.010;2023-02-13T07:11:33;11.57;;;9.07;;
3081;SDS011;1551;51.046;7.010;2023-02-13T07:14:22;13.63;;;9.98;;
3081;SDS011;1551;51.046;7.010;2023-02-13T07:17:11;11.80;;;8.60;;
3081;SDS011;1551;51.046;7.010;2023-02-13T07:20:00;12.50;;;9.90;;
3081;SDS011;1551;51.046;7.010;2023-02-13T07:22:49;13.20;;;9.35;;
3081;SDS011;1551;51.046;7.010;2023-02-13T07:25:38;13.53;;;9.90;;
3081;SDS011;1551;51.046;7.010;2023-02-13T07:28:27;12.02;;;9.60;;
3081;SDS011;1551;51.046;7.010;2023-02-13T07:31:17;12.70;;;9.45;;
3081;SDS011;1551;51.046;7.010;2023-02-13T07:34:06;13.27;;;9.52;;
3081;SDS011;1551;51.046;7.010;2023-02-13T07:36:55;15.77;;;10.00;;
3081;SDS011;1551;51.046;7.010;2023-02-13T07:39:44;13.65;;;9.48;;
3081;SDS011;1551;51.046;7.010;2023-02-13T07:42:33;12.37;;;10.00;;
3081;SDS011;1551;51.046;7.010;2023-02-13T07:45:23;13.57;;;9.98;;
3081;SDS011;1551;51.046;7.010;2023-02-13T07:48:12;14.70;;;10.60;;
3081;SDS011;1551;51.046;7.010;2023-02-13T07:51:02;14.23;;;9.68;;
3081;SDS011;1551;51.046;7.010;2023-02-13T07:53:52;11.20;;;9.02;;
3081;SDS011;1551;51.046;7.010;2023-02-13T07:56:41;13.00;;;9.67;;
3081;SDS011;1551;51.046;7.010;2023-02-13T07:59:30;12.55;;;9.35;;
3081;SDS011;1551;51.046;7.010;2023-02-13T08:02:19;12.88;;;9.82;;
3081;SDS011;1551;51.046;7.010;2023-02-13T08:05:08;12.63;;;8.80;;
3081;SDS011;1551;51.046;7.010;2023-02-13T08:07:57;12.03;;;9.00;;
3081;SDS011;1551;51.046;7.010;2023-02-13T08:10:46;12.30;;;10.00;;
3081;SDS011;1551;51.046;7.010;2023-02-13T08:13:54;12.68;;;9.00;;
3081;SDS011;1551;51.046;7.010;2023-02-13T08:16:43;12.45;;;9.48;;
3081;SDS011;1551;51.046;7.010;2023-02-13T08:19:32;13.38;;;10.20;;
3081;SDS011;1551;51.046;7.010;2023-02-13T08:22:21;11.40;;;8.60;;
3081;SDS011;1551;51.046;7.010;2023-02-13T08:25:10;14.32;;;9.70;;
3081;SDS011;1551;51.046;7.010;2023-02-13T08:27:59;12.32;;;9.98;;
3081;SDS011;1551;51.046;7.010;2023-02-13T08:30:49;11.48;;;9.13;;
3081;SDS011;1551;51.046;7.010;2023-02-13T08:33:38;12.00;;;9.00;;
3081;SDS011;1551;51.046;7.010;2023-02-13T08:36:29;13.00;;;9.70;;
3081;SDS011;1551;51.046;7.010;2023-02-13T08:39:18;12.52;;;8.88;;
3081;SDS011;1551;51.046;7.010;2023-02-13T08:42:07;10.93;;;9.03;;
3081;SDS011;1551;51.046;7.010;2023-02-13T08:44:56;10.55;;;8.10;;
3081;SDS011;1551;51.046;7.010;2023-02-13T08:47:45;11.73;;;8.57;;
3081;SDS011;1551;51.046;7.010;2023-02-13T08:50:34;13.07;;;9.35;;
3081;SDS011;1551;51.046;7.010;2023-02-13T08:53:23;10.40;;;8.50;;
3081;SDS011;1551;51.046;7.010;2023-02-13T08:56:12;11.93;;;9.40;;
3081;SDS011;1551;51.046;7.010;2023-02-13T08:59:01;11.48;;;8.35;;
3081;SDS011;1551;51.046;7.010;2023-02-13T09:01:50;11.15;;;8.40;;
3081;SDS011;1551;51.046;7.010;2023-02-13T09:04:39;11.45;;;9.27;;
3081;SDS011;1551;51.046;7.010;2023-02-13T09:07:28;10.00;;;8.30;;
3081;SDS011;1551;51.046;7.010;2023-02-13T09:10:17;11.13;;;8.30;;
3081;SDS011;1551;51.046;7.010;2023-02-13T09:13:06;9.20;;;7.40;;
3081;SDS011;1551;51.046;7.010;2023-02-13T09:15:59;10.63;;;7.65;;
3081;SDS011;1551;51.046;7.010;2023-02-13T09:18:49;10.57;;;8.18;;
3081;SDS011;1551;51.046;7.010;2023-02-13T09:21:38;11.43;;;8.00;;
3081;SDS011;1551;51.046;7.010;2023-02-13T09:24:27;10.95;;;8.15;;
3081;SDS011;1551;51.046;7.010;2023-02-13T09:27:16;10.32;;;8.50;;
3081;SDS011;1551;51.046;7.010;2023-02-13T09:30:06;8.40;;;6.90;;
3081;SDS011;1551;51.046;7.010;2023-02-13T09:32:57;10.02;;;8.07;;
3081;SDS011;1551;51.046;7.010;2023-02-13T09:35:46;9.88;;;7.00;;
3081;SDS011;1551;51.046;7.010;2023-02-13T09:38:36;8.88;;;7.65;;
3081;SDS011;1551;51.046;7.010;2023-02-13T09:41:27;9.75;;;7.25;;
3081;SDS011;1551;51.046;7.010;2023-02-13T09:44:19;9.40;;;6.78;;
3081;SDS011;1551;51.046;7.010;2023-02-13T09:50:28;8.80;;;7.13;;
3081;SDS011;1551;51.046;7.010;2023-02-13T09:53:22;8.63;;;7.10;;
3081;SDS011;1551;51.046;7.010;2023-02-13T09:56:20;8.93;;;6.30;;
3081;SDS011;1551;51.046;7.010;2023-02-13T10:05:50;9.60;;;5.97;;
3081;SDS011;1551;51.046;7.010;2023-02-13T10:16:04;7.10;;;6.30;;
3081;SDS011;1551;51.046;7.010;2023-02-13T10:19:01;8.15;;;6.40;;
3081;SDS011;1551;51.046;7.010;2023-02-13T10:21:56;7.85;;;6.22;;
3081;SDS011;1551;51.046;7.010;2023-02-13T10:24:49;8.02;;;6.00;;
3081;SDS011;1551;51.046;7.010;2023-02-13T10:27:43;7.13;;;5.63;;
3081;SDS011;1551;51.046;7.010;2023-02-13T10:30:57;6.40;;;4.93;;
3081;SDS011;1551;51.046;7.010;2023-02-13T10:33:54;7.38;;;6.00;;
3081;SDS011;1551;51.046;7.010;2023-02-13T10:36:46;6.65;;;5.80;;
3081;SDS011;1551;51.046;7.010;2023-02-13T10:39:36;8.07;;;5.78;;
3081;SDS011;1551;51.046;7.010;2023-02-13T10:42:35;6.72;;;5.72;;
3081;SDS011;1551;51.046;7.010;2023-02-13T10:52:34;6.82;;;5.50;;
3081;SDS011;1551;51.046;7.010;2023-02-13T11:02:19;6.63;;;5.28;;
3081;SDS011;1551;51.046;7.010;2023-02-13T11:05:18;8.80;;;7.20;;
3081;SDS011;1551;51.046;7.010;2023-02-13T11:08:15;6.00;;;5.20;;
3081;SDS011;1551;51.046;7.010;2023-02-13T11:14:18;6.25;;;5.10;;
3081;SDS011;1551;51.046;7.010;2023-02-13T11:17:12;8.07;;;5.90;;
3081;SDS011;1551;51.046;7.010;2023-02-13T11:20:07;6.40;;;5.50;;
3081;SDS011;1551;51.046;7.010;2023-02-13T11:29:24;5.80;;;5.20;;
3081;SDS011;1551;51.046;7.010;2023-02-13T11:38:26;7.00;;;5.20;;
3081;SDS011;1551;51.046;7.010;2023-02-13T11:41:15;7.22;;;6.13;;
3081;SDS011;1551;51.046;7.010;2023-02-13T11:44:17;6.10;;;4.47;;
3081;SDS011;1551;51.046;7.010;2023-02-13T11:47:10;6.65;;;5.30;;
3081;SDS011;1551;51.046;7.010;2023-02-13T11:50:02;5.72;;;4.72;;
3081;SDS011;1551;51.046;7.010;2023-02-13T11:53:00;6.07;;;4.63;;
3081;SDS011;1551;51.046;7.010;2023-02-13T11:56:00;7.28;;;5.30;;
3081;SDS011;1551;51.046;7.010;2023-02-13T11:59:00;5.93;;;4.80;;
3081;SDS011;1551;51.046;7.010;2023-02-13T12:02:12;4.88;;;4.10;;
3081;SDS011;1551;51.046;7.010;2023-02-13T12:05:19;5.70;;;4.75;;
3081;SDS011;1551;51.046;7.010;2023-02-13T12:08:10;7.80;;;7.07;;
3081;SDS011;1551;51.046;7.010;2023-02-13T12:11:00;5.60;;;4.32;;
3081;SDS011;1551;51.046;7.010;2023-02-13T12:13:51;5.77;;;4.03;;
3081;SDS011;1551;51.046;7.010;2023-02-13T12:16:46;4.20;;;3.53;;
3081;SDS011;1551;51.046;7.010;2023-02-13T12:19:40;5.97;;;4.30;;
3081;SDS011;1551;51.046;7.010;2023-02-13T12:25:45;5.38;;;4.03;;
3081;SDS011;1551;51.046;7.010;2023-02-13T12:41:17;5.05;;;3.80;;
3081;SDS011;1551;51.046;7.010;2023-02-13T12:59:32;5.10;;;3.78;;
3081;SDS011;1551;51.046;7.010;2023-02-13T13:05:50;4.20;;;2.80;;
3081;SDS011;1551;51.046;7.010;2023-02-13T13:08:54;4.78;;;2.80;;
3081;SDS011;1551;51.046;7.010;2023-02-13T13:18:09;4.32;;;2.83;;
3081;SDS011;1551;51.046;7.010;2023-02-13T13:27:36;3.72;;;2.83;;
3081;SDS011;1551;51.046;7.010;2023-02-13T13:30:32;4.13;;;2.80;;
3081;SDS011;1551;51.046;7.010;2023-02-13T13:33:23;3.50;;;2.80;;
3081;SDS011;1551;51.046;7.010;2023-02-13T13:36:33;3.40;;;2.50;;
3081;SDS011;1551;51.046;7.010;2023-02-13T13:42:54;3.20;;;2.50;;
3081;SDS011;1551;51.046;7.010;2023-02-13T13:45:48;4.82;;;2.45;;
3081;SDS011;1551;51.046;7.010;2023-02-13T13:52:08;3.60;;;2.25;;
3081;SDS011;1551;51.046;7.010;2023-02-13T13:55:09;3.83;;;2.70;;
3081;SDS011;1551;51.046;7.010;2023-02-13T13:58:46;2.70;;;2.05;;
3081;SDS011;1551;51.046;7.010;2023-02-13T14:01:37;3.60;;;2.00;;
3081;SDS011;1551;51.046;7.010;2023-02-13T14:07:22;3.05;;;2.00;;
3081;SDS011;1551;51.046;7.010;2023-02-13T14:13:27;2.90;;;1.80;;
3081;SDS011;1551;51.046;7.010;2023-02-13T14:19:34;8.02;;;5.88;;
3081;SDS011;1551;51.046;7.010;2023-02-13T14:25:26;3.70;;;2.90;;
3081;SDS011;1551;51.046;7.010;2023-02-13T14:28:25;3.53;;;2.22;;
3081;SDS011;1551;51.046;7.010;2023-02-13T14:31:28;4.82;;;3.20;;
3081;SDS011;1551;51.046;7.010;2023-02-13T14:34:27;2.72;;;1.67;;
3081;SDS011;1551;51.046;7.010;2023-02-13T14:37:53;3.80;;;2.50;;
3081;SDS011;1551;51.046;7.010;2023-02-13T14:43:48;3.28;;;1.98;;
3081;SDS011;1551;51.046;7.010;2023-02-13T14:46:39;3.28;;;2.50;;
3081;SDS011;1551;51.046;7.010;2023-02-13T14:49:29;2.70;;;1.90;;
3081;SDS011;1551;51.046;7.010;2023-02-13T14:52:24;3.90;;;2.40;;
3081;SDS011;1551;51.046;7.010;2023-02-13T14:58:30;3.90;;;1.80;;
3081;SDS011;1551;51.046;7.010;2023-02-13T15:07:34;2.30;;;1.70;;
3081;SDS011;1551;51.046;7.010;2023-02-13T15:10:31;3.30;;;1.80;;
3081;SDS011;1551;51.046;7.010;2023-02-13T15:13:25;2.70;;;1.90;;
3081;SDS011;1551;51.046;7.010;2023-02-13T15:16:21;2.80;;;1.70;;
3081;SDS011;1551;51.046;7.010;2023-02-13T15:19:13;2.30;;;1.40;;
3081;SDS011;1551;51.046;7.010;2023-02-13T15:22:05;2.80;;;1.58;;
3081;SDS011;1551;51.046;7.010;2023-02-13T15:24:54;2.38;;;1.60;;
3081;SDS011;1551;51.046;7.010;2023-02-13T15:27:44;2.10;;;1.30;;
3081;SDS011;1551;51.046;7.010;2023-02-13T15:30:34;2.40;;;1.40;;
3081;SDS011;1551;51.046;7.010;2023-02-13T15:33:27;2.30;;;1.40;;
3081;SDS011;1551;51.046;7.010;2023-02-13T15:36:21;2.20;;;1.33;;
3081;SDS011;1551;51.046;7.010;2023-02-13T15:39:19;2.27;;;1.30;;
3081;SDS011;1551;51.046;7.010;2023-02-13T15:42:12;2.20;;;1.30;;
3081;SDS011;1551;51.046;7.010;2023-02-13T15:45:01;2.80;;;1.75;;
3081;SDS011;1551;51.046;7.010;2023-02-13T15:47:50;2.90;;;1.80;;
3081;SDS011;1551;51.046;7.010;2023-02-13T15:50:40;6.18;;;1.85;;
3081;SDS011;1551;51.046;7.010;2023-02-13T15:53:30;3.20;;;1.40;;
3081;SDS011;1551;51.046;7.010;2023-02-13T15:56:19;3.08;;;1.70;;
3081;SDS011;1551;51.046;7.010;2023-02-13T15:59:08;3.00;;;2.00;;
3081;SDS011;1551;51.046;7.010;2023-02-13T16:01:58;2.60;;;1.70;;
3081;SDS011;1551;51.046;7.010;2023-02-13T16:04:49;2.70;;;1.70;;
3081;SDS011;1551;51.046;7.010;2023-02-13T16:07:47;2.80;;;1.60;;
3081;SDS011;1551;51.046;7.010;2023-02-13T16:10:38;3.45;;;1.75;;
3081;SDS011;1551;51.046;7.010;2023-02-13T16:13:28;3.60;;;2.00;;
3081;SDS011;1551;51.046;7.010;2023-02-13T16:16:17;3.30;;;1.80;;
3081;SDS011;1551;51.046;7.010;2023-02-13T16:19:13;2.83;;;1.90;;
3081;SDS011;1551;51.046;7.010;2023-02-13T16:28:01;2.40;;;1.50;;
3081;SDS011;1551;51.046;7.010;2023-02-13T16:33:49;3.13;;;1.80;;
3081;SDS011;1551;51.046;7.010;2023-02-13T16:36:38;4.20;;;1.80;;
3081;SDS011;1551;51.046;7.010;2023-02-13T16:39:28;3.35;;;2.60;;
3081;SDS011;1551;51.046;7.010;2023-02-13T16:42:19;3.70;;;2.30;;
3081;SDS011;1551;51.046;7.010;2023-02-13T16:45:23;3.50;;;1.90;;
3081;SDS011;1551;51.046;7.010;2023-02-13T16:48:13;4.60;;;2.50;;
3081;SDS011;1551;51.046;7.010;2023-02-13T16:51:03;5.80;;;2.40;;
3081;SDS011;1551;51.046;7.010;2023-02-13T16:54:02;4.50;;;2.30;;
3081;SDS011;1551;51.046;7.010;2023-02-13T16:56:59;6.30;;;2.97;;
3081;SDS011;1551;51.046;7.010;2023-02-13T17:00:20;5.05;;;2.30;;
3081;SDS011;1551;51.046;7.010;2023-02-13T17:03:14;3.85;;;2.15;;
3081;SDS011;1551;51.046;7.010;2023-02-13T17:06:03;3.80;;;2.20;;
3081;SDS011;1551;51.046;7.010;2023-02-13T17:08:52;5.05;;;2.22;;
3081;SDS011;1551;51.046;7.010;2023-02-13T17:11:41;6.55;;;2.20;;
3081;SDS011;1551;51.046;7.010;2023-02-13T17:14:37;4.53;;;3.22;;
3081;SDS011;1551;51.046;7.010;2023-02-13T17:17:27;5.07;;;2.50;;
3081;SDS011;1551;51.046;7.010;2023-02-13T17:20:23;5.43;;;3.22;;
3081;SDS011;1551;51.046;7.010;2023-02-13T17:23:15;4.00;;;2.45;;
3081;SDS011;1551;51.046;7.010;2023-02-13T17:26:06;4.10;;;2.63;;
3081;SDS011;1551;51.046;7.010;2023-02-13T17:28:55;5.30;;;2.60;;
3081;SDS011;1551;51.046;7.010;2023-02-13T17:31:43;4.28;;;2.65;;
3081;SDS011;1551;51.046;7.010;2023-02-13T17:34:32;4.60;;;2.90;;
3081;SDS011;1551;51.046;7.010;2023-02-13T17:37:23;3.97;;;2.72;;
3081;SDS011;1551;51.046;7.010;2023-02-13T17:40:15;4.55;;;3.30;;
3081;SDS011;1551;51.046;7.010;2023-02-13T17:43:09;5.13;;;3.97;;
3081;SDS011;1551;51.046;7.010;2023-02-13T17:46:00;7.32;;;4.00;;
3081;SDS011;1551;51.046;7.010;2023-02-13T17:48:49;5.50;;;4.50;;
3081;SDS011;1551;51.046;7.010;2023-02-13T17:51:38;5.97;;;4.13;;
3081;SDS011;1551;51.046;7.010;2023-02-13T17:54:28;4.70;;;3.60;;
3081;SDS011;1551;51.046;7.010;2023-02-13T17:57:17;7.53;;;4.65;;
3081;SDS011;1551;51.046;7.010;2023-02-13T18:00:06;4.90;;;3.38;;
3081;SDS011;1551;51.046;7.010;2023-02-13T18:03:01;6.25;;;4.43;;
3081;SDS011;1551;51.046;7.010;2023-02-13T18:05:50;11.75;;;9.10;;
3081;SDS011;1551;51.046;7.010;2023-02-13T18:08:39;9.43;;;6.55;;
3081;SDS011;1551;51.046;7.010;2023-02-13T18:11:28;6.38;;;5.65;;
3081;SDS011;1551;51.046;7.010;2023-02-13T18:14:18;7.10;;;6.40;;
3081;SDS011;1551;51.046;7.010;2023-02-13T18:17:07;14.90;;;13.50;;
3081;SDS011;1551;51.046;7.010;2023-02-13T18:19:56;14.10;;;11.55;;
3081;SDS011;1551;51.046;7.010;2023-02-13T18:22:47;10.82;;;9.77;;
3081;SDS011;1551;51.046;7.010;2023-02-13T18:25:40;8.63;;;7.82;;
3081;SDS011;1551;51.046;7.010;2023-02-13T18:28:29;6.90;;;5.93;;
3081;SDS011;1551;51.046;7.010;2023-02-13T18:31:18;7.03;;;5.07;;
3081;SDS011;1551;51.046;7.010;2023-02-13T18:34:07;6.50;;;4.70;;
3081;SDS011;1551;51.046;7.010;2023-02-13T18:36:56;8.93;;;6.82;;
3081;SDS011;1551;51.046;7.010;2023-02-13T18:39:45;7.78;;;5.80;;
3081;SDS011;1551;51.046;7.010;2023-02-13T18:42:34;7.82;;;5.50;;
3081;SDS011;1551;51.046;7.010;2023-02-13T18:45:23;10.25;;;7.03;;
3081;SDS011;1551;51.046;7.010;2023-02-13T18:48:12;6.90;;;5.10;;
3081;SDS011;1551;51.046;7.010;2023-02-13T18:51:02;7.72;;;5.68;;
3081;SDS011;1551;51.046;7.010;2023-02-13T18:53:51;6.88;;;5.60;;
3081;SDS011;1551;51.046;7.010;2023-02-13T18:56:40;7.78;;;5.55;;
3081;SDS011;1551;51.046;7.010;2023-02-13T18:59:29;9.15;;;6.90;;
3081;SDS011;1551;51.046;7.010;2023-02-13T19:02:18;9.90;;;5.38;;
3081;SDS011;1551;51.046;7.010;2023-02-13T19:05:07;9.98;;;6.70;;
3081;SDS011;1551;51.046;7.010;2023-02-13T19:07:57;9.23;;;7.70;;
3081;SDS011;1551;51.046;7.010;2023-02-13T19:10:45;11.65;;;9.55;;
3081;SDS011;1551;51.046;7.010;2023-02-13T19:13:34;27.35;;;21.60;;
3081;SDS011;1551;51.046;7.010;2023-02-13T19:16:25;21.07;;;16.90;;
3081;SDS011;1551;51.046;7.010;2023-02-13T19:19:14;15.35;;;12.98;;
3081;SDS011;1551;51.046;7.010;2023-02-13T19:22:03;12.20;;;9.55;;
3081;SDS011;1551;51.046;7.010;2023-02-13T19:24:52;10.27;;;8.40;;
3081;SDS011;1551;51.046;7.010;2023-02-13T19:27:41;8.47;;;7.57;;
3081;SDS011;1551;51.046;7.010;2023-02-13T19:30:31;9.80;;;8.25;;
3081;SDS011;1551;51.046;7.010;2023-02-13T19:33:20;12.02;;;10.63;;
3081;SDS011;1551;51.046;7.010;2023-02-13T19:36:10;9.80;;;8.90;;
3081;SDS011;1551;51.046;7.010;2023-02-13T19:39:02;9.40;;;8.38;;
3081;SDS011;1551;51.046;7.010;2023-02-13T19:41:53;9.05;;;7.53;;
3081;SDS011;1551;51.046;7.010;2023-02-13T19:44:42;7.65;;;6.40;;
3081;SDS011;1551;51.046;7.010;2023-02-13T19:47:32;8.10;;;6.53;;
3081;SDS011;1551;51.046;7.010;2023-02-13T19:50:21;6.90;;;5.38;;
3081;SDS011;1551;51.046;7.010;2023-02-13T19:53:10;7.45;;;4.43;;
3081;SDS011;1551;51.046;7.010;2023-02-13T19:56:00;8.20;;;5.93;;
3081;SDS011;1551;51.046;7.010;2023-02-13T19:58:50;6.22;;;4.97;;
3081;SDS011;1551;51.046;7.010;2023-02-13T20:01:39;6.70;;;4.00;;
3081;SDS011;1551;51.046;7.010;2023-02-13T20:04:30;7.97;;;5.70;;
3081;SDS011;1551;51.046;7.010;2023-02-13T20:07:19;7.50;;;5.60;;
3081;SDS011;1551;51.046;7.010;2023-02-13T20:10:08;7.82;;;4.95;;
3081;SDS011;1551;51.046;7.010;2023-02-13T20:12:58;8.05;;;5.40;;
3081;SDS011;1551;51.046;7.010;2023-02-13T20:15:47;7.70;;;5.32;;
3081;SDS011;1551;51.046;7.010;2023-02-13T20:18:38;7.65;;;5.32;;
3081;SDS011;1551;51.046;7.010;2023-02-13T20:21:27;8.68;;;5.22;;
3081;SDS011;1551;51.046;7.010;2023-02-13T20:24:16;9.10;;;5.70;;
3081;SDS011;1551;51.046;7.010;2023-02-13T20:27:05;24.75;;;16.13;;
3081;SDS011;1551;51.046;7.010;2023-02-13T20:29:54;29.42;;;19.05;;
3081;SDS011;1551;51.046;7.010;2023-02-13T20:32:43;37.22;;;23.42;;
3081;SDS011;1551;51.046;7.010;2023-02-13T20:35:32;11.88;;;8.70;;